Time;durP1;ratioP1;P1;durP2;ratioP2;P2;SDS_P1;SDS_P2;PMS_P1;PMS_P2;Temp;Humidity;BMP_temperature;BMP_pressure;BME280_temperature;BME280_humidity;BME280_pressure;Samples;Min_cycle;Max_cycle;Signal;HPM_P1;HPM_P2
2021/04/19 00:01:54;;;;;;;70.60;31.38;;;;;;;5.15;100.00;94660.13;10487524;28;20421;-74
2021/04/19 00:06:55;;;;;;;68.40;31.08;;;;;;;5.19;100.00;94649.78;10487644;28;20032;-75
2021/04/19 00:11:55;;;;;;;67.00;29.80;;;;;;;5.22;100.00;94649.28;10488069;28;20029;-75
2021/04/19 00:16:56;;;;;;;64.13;28.73;;;;;;;5.27;100.00;94644.88;10486626;28;20024;-75
2021/04/19 00:21:56;;;;;;;50.33;22.40;;;;;;;5.20;100.00;94632.75;10486156;28;20024;-75
2021/04/19 00:26:57;;;;;;;43.07;20.20;;;;;;;4.89;100.00;94629.56;10487252;28;20091;-75
2021/04/19 00:31:57;;;;;;;44.05;19.75;;;;;;;4.76;100.00;94625.34;10486897;28;20309;-75
2021/04/19 00:36:57;;;;;;;44.83;20.10;;;;;;;4.71;100.00;94615.41;10486397;28;20024;-75
2021/04/19 00:41:58;;;;;;;39.28;18.55;;;;;;;4.63;100.00;94599.81;10484669;28;20017;-75
2021/04/19 00:46:59;;;;;;;41.35;19.55;;;;;;;4.61;100.00;94594.75;10485152;28;20051;-76
2021/04/19 00:52:00;;;;;;;43.03;19.77;;;;;;;4.58;100.00;94591.75;10485635;28;20072;-76
2021/04/19 00:57:01;;;;;;;45.60;21.67;;;;;;;4.55;100.00;94593.03;10486639;28;20031;-75
2021/04/19 01:02:02;;;;;;;45.67;20.95;;;;;;;4.67;100.00;94590.31;10467736;28;20032;-76
2021/04/19 01:07:03;;;;;;;44.63;21.63;;;;;;;4.82;100.00;94589.78;10486142;28;20035;-75
2021/04/19 01:12:04;;;;;;;57.10;24.07;;;;;;;4.89;100.00;94598.41;10485763;28;20017;-75
2021/04/19 01:17:04;;;;;;;49.20;21.52;;;;;;;4.88;100.00;94593.34;10485443;28;20037;-76
2021/04/19 01:22:05;;;;;;;40.00;18.35;;;;;;;4.90;100.00;94591.25;10466937;28;20028;-76
2021/04/19 01:27:07;;;;;;;42.40;19.25;;;;;;;4.87;100.00;94592.53;10485201;28;20107;-76
2021/04/19 01:32:08;;;;;;;44.67;17.73;;;;;;;4.84;100.00;94578.88;10466435;28;20017;-76
2021/04/19 01:37:09;;;;;;;37.70;17.30;;;;;;;4.96;100.00;94584.94;10484752;28;20518;-75
2021/04/19 01:42:09;;;;;;;31.23;16.43;;;;;;;4.93;100.00;94588.91;10484355;28;20090;-76
2021/04/19 01:47:11;;;;;;;35.22;17.27;;;;;;;5.01;100.00;94584.22;10482478;28;20278;-75
2021/04/19 01:52:11;;;;;;;29.90;15.30;;;;;;;4.82;100.00;94589.78;10484166;28;20032;-76
2021/04/19 01:57:30;;;;;;;30.23;14.90;;;;;;;4.45;100.00;94585.69;10484245;28;20813;-76
2021/04/19 02:02:42;;;;;;;30.98;16.77;;;;;;;4.33;100.00;94582.25;10473980;28;20396;-76
2021/04/19 02:07:58;;;;;;;40.65;18.58;;;;;;;4.10;100.00;94578.66;10483696;28;20042;-75
2021/04/19 02:13:06;;;;;;;37.45;15.88;;;;;;;4.09;100.00;94574.38;10482532;28;20443;-76
2021/04/19 02:18:14;;;;;;;35.03;16.55;;;;;;;3.94;100.00;94566.09;10483410;28;20028;-76
2021/04/19 02:23:36;;;;;;;37.65;17.52;;;;;;;4.02;100.00;94563.06;10464416;28;20075;-76
2021/04/19 02:28:44;;;;;;;34.85;16.83;;;;;;;4.18;100.00;94560.69;10464660;28;20377;-76
2021/04/19 02:33:45;;;;;;;33.50;17.07;;;;;;;4.39;100.00;94556.56;10483216;28;20028;-76
2021/04/19 02:38:49;;;;;;;32.30;16.25;;;;;;;4.54;100.00;94545.38;10481433;28;20411;-76
2021/04/19 02:43:52;;;;;;;34.63;16.02;;;;;;;4.59;100.00;94532.97;10487640;28;20035;-76
2021/04/19 02:48:53;;;;;;;36.42;15.93;;;;;;;4.69;100.00;94520.84;10490032;28;20098;-76
2021/04/19 02:53:53;;;;;;;36.85;17.30;;;;;;;4.60;100.00;94536.44;10490912;28;20106;-76
2021/04/19 02:59:02;;;;;;;46.33;18.15;;;;;;;4.46;100.00;94527.94;10490116;28;20843;-76
2021/04/19 03:04:07;;;;;;;41.47;18.70;;;;;;;4.60;100.00;94525.78;10490655;28;20502;-76
2021/04/19 03:09:07;;;;;;;49.65;18.13;;;;;;;4.57;100.00;94521.75;10489663;28;20036;-76
2021/04/19 03:14:10;;;;;;;46.85;20.00;;;;;;;4.59;100.00;94532.13;10489991;28;20039;-76
2021/04/19 03:19:13;;;;;;;45.78;19.35;;;;;;;4.57;100.00;94531.59;10489778;28;20024;-76
2021/04/19 03:24:14;;;;;;;53.30;21.48;;;;;;;4.54;100.00;94534.72;10488525;28;20063;-76
2021/04/19 03:29:16;;;;;;;50.17;20.05;;;;;;;4.70;100.00;94517.16;10491854;28;20139;-76
2021/04/19 03:34:22;;;;;;;43.10;19.13;;;;;;;4.80;100.00;94517.34;10491286;28;20028;-76
2021/04/19 03:39:24;;;;;;;53.58;22.23;;;;;;;4.98;100.00;94518.91;10490625;28;20731;-76
2021/04/19 03:44:28;;;;;;;61.50;22.13;;;;;;;4.99;100.00;94514.41;10505603;28;20041;-76
2021/04/19 03:49:33;;;;;;;69.55;25.40;;;;;;;5.03;100.00;94512.88;10490685;28;20437;-75
2021/04/19 03:54:38;;;;;;;64.55;22.83;;;;;;;4.95;100.00;94504.25;10490349;28;20909;-75
2021/04/19 03:59:40;;;;;;;47.28;17.98;;;;;;;4.82;100.00;94507.25;10490260;28;20107;-75
2021/04/19 04:04:43;;;;;;;38.30;17.75;;;;;;;4.73;100.00;94484.72;10490116;28;20026;-76
2021/04/19 04:09:44;;;;;;;32.47;15.30;;;;;;;4.73;100.00;94485.53;10490379;28;20027;-76
2021/04/19 04:14:55;;;;;;;34.95;15.90;;;;;;;4.65;100.00;94493.09;10490237;28;20024;-75
2021/04/19 04:19:56;;;;;;;23.35;12.85;;;;;;;4.52;100.00;94499.56;10489683;28;20028;-73
2021/04/19 04:24:58;;;;;;;26.70;12.27;;;;;;;4.26;100.00;94491.94;10524651;28;20028;-73
2021/04/19 04:29:58;;;;;;;27.52;13.80;;;;;;;4.29;100.00;94501.31;10530774;28;20024;-73
2021/04/19 04:34:59;;;;;;;29.13;14.38;;;;;;;4.46;100.00;94496.00;10530474;28;20035;-73
2021/04/19 04:40:00;;;;;;;33.13;16.33;;;;;;;4.58;100.00;94506.59;10530126;28;20040;-73
2021/04/19 04:45:01;;;;;;;35.77;17.80;;;;;;;4.69;100.00;94507.53;10528549;28;20028;-74
2021/04/19 04:50:22;;;;;;;44.45;18.77;;;;;;;4.71;100.00;94513.44;10529189;28;20640;-74
2021/04/19 04:55:23;;;;;;;48.95;20.75;;;;;;;4.69;100.00;94500.38;10522745;28;20833;-74
2021/04/19 05:00:24;;;;;;;52.35;21.77;;;;;;;4.75;100.00;94501.28;10515786;28;20036;-74
2021/04/19 05:05:25;;;;;;;54.97;23.33;;;;;;;4.56;100.00;94500.69;10526992;28;20036;-73
2021/04/19 05:10:26;;;;;;;62.90;26.98;;;;;;;4.51;100.00;94501.41;10519418;28;20483;-73
2021/04/19 05:15:26;;;;;;;64.55;24.98;;;;;;;4.40;100.00;94500.44;10509827;28;20082;-74
2021/04/19 05:20:27;;;;;;;57.05;24.60;;;;;;;4.40;100.00;94503.09;10517909;28;20454;-73
2021/04/19 05:25:27;;;;;;;66.63;28.07;;;;;;;4.55;100.00;94510.53;10492922;28;20032;-73
2021/04/19 05:30:28;;;;;;;59.90;24.83;;;;;;;4.69;100.00;94502.22;10522767;28;20278;-74
2021/04/19 05:35:30;;;;;;;68.55;27.95;;;;;;;4.63;100.00;94504.00;10509111;28;20388;-73
2021/04/19 05:40:33;;;;;;;71.13;30.65;;;;;;;4.62;100.00;94502.41;10487053;28;20068;-74
2021/04/19 05:45:36;;;;;;;74.97;29.25;;;;;;;4.69;100.00;94495.06;10486714;28;20526;-74
2021/04/19 05:50:36;;;;;;;60.75;23.85;;;;;;;4.57;100.00;94508.44;10487437;28;20038;-73
2021/04/19 05:55:37;;;;;;;60.70;25.20;;;;;;;4.43;100.00;94513.25;10486299;28;20599;-73
2021/04/19 06:00:46;;;;;;;66.43;25.10;;;;;;;4.38;100.00;94509.69;10485889;28;20122;-73
2021/04/19 06:06:10;;;;;;;65.93;28.55;;;;;;;4.44;100.00;94495.44;10486104;28;20030;-73
2021/04/19 06:11:20;;;;;;;62.22;26.38;;;;;;;4.61;100.00;94508.78;10486464;28;20467;-73
2021/04/19 06:16:21;;;;;;;66.65;26.63;;;;;;;4.73;100.00;94500.69;10487153;28;20067;-73
2021/04/19 06:21:22;;;;;;;73.30;29.55;;;;;;;4.61;100.00;94493.59;10491585;28;20035;-75
2021/04/19 06:26:22;;;;;;;78.75;33.38;;;;;;;4.76;100.00;94489.59;10499854;28;20051;-77
2021/04/19 06:31:24;;;;;;;77.50;31.08;;;;;;;4.69;100.00;94488.91;10486438;28;20375;-77
2021/04/19 06:36:24;;;;;;;75.38;29.75;;;;;;;4.83;100.00;94479.56;10486736;28;20350;-78
2021/04/19 06:41:25;;;;;;;72.73;27.70;;;;;;;4.87;100.00;94486.03;10495139;28;20031;-78
2021/04/19 06:46:30;;;;;;;68.82;27.73;;;;;;;4.93;100.00;94487.69;10486821;28;20107;-79
2021/04/19 06:51:32;;;;;;;69.25;27.42;;;;;;;4.93;100.00;94486.91;10486590;28;20546;-79
2021/04/19 06:56:42;;;;;;;59.60;25.92;;;;;;;4.97;100.00;94496.03;10487102;28;20028;-80
2021/04/19 07:01:43;;;;;;;63.05;25.48;;;;;;;5.04;100.00;94496.66;10486801;28;20123;-79
2021/04/19 07:06:45;;;;;;;59.58;24.77;;;;;;;4.77;100.00;94493.84;10486634;28;20116;-79
2021/04/19 07:11:50;;;;;;;58.13;24.33;;;;;;;4.90;100.00;94492.72;10502215;28;20395;-79
2021/04/19 07:16:51;;;;;;;72.18;27.52;;;;;;;5.04;100.00;94503.84;10505972;28;20035;-79
2021/04/19 07:21:52;;;;;;;60.60;23.92;;;;;;;5.01;100.00;94502.47;10518876;28;20028;-79
2021/04/19 07:26:56;;;;;;;57.85;23.00;;;;;;;5.07;100.00;94503.34;10528278;28;20023;-79
2021/04/19 07:31:58;;;;;;;56.97;24.85;;;;;;;5.08;100.00;94505.78;10529854;28;20023;-79
2021/04/19 07:37:04;;;;;;;61.42;23.25;;;;;;;5.22;100.00;94505.41;10536031;28;20031;-79
2021/04/19 07:42:07;;;;;;;59.17;24.48;;;;;;;5.13;100.00;94500.53;10536450;28;20027;-84
2021/04/19 07:47:23;;;;;;;41.78;20.92;;;;;;;4.97;100.00;94498.69;10506517;28;20100;-83
2021/04/19 07:52:23;;;;;;;36.38;16.63;;;;;;;5.05;100.00;94489.47;10506348;28;20127;-83
2021/04/19 07:57:24;;;;;;;41.40;16.42;;;;;;;5.08;100.00;94480.97;10511841;28;20115;-83
2021/04/19 08:02:25;;;;;;;50.77;15.60;;;;;;;4.99;100.00;94469.16;10499453;28;20032;-82
2021/04/19 08:07:28;;;;;;;19.20;8.23;;;;;;;4.77;100.00;94468.03;10499001;28;20275;-82
2021/04/19 08:12:34;;;;;;;16.98;6.88;;;;;;;4.54;100.00;94450.38;10499028;28;20028;-82
2021/04/19 08:17:34;;;;;;;9.63;5.03;;;;;;;4.37;100.00;94447.72;10537067;28;20027;-82
2021/04/19 08:22:35;;;;;;;12.48;6.22;;;;;;;4.34;100.00;94452.69;10540383;28;20103;-81
2021/04/19 08:27:36;;;;;;;14.18;6.65;;;;;;;4.48;100.00;94446.03;10540669;28;20020;-82
2021/04/19 08:32:37;;;;;;;11.35;6.35;;;;;;;4.45;100.00;94438.50;10538855;28;20020;-82
2021/04/19 08:37:40;;;;;;;22.73;6.65;;;;;;;4.52;100.00;94433.84;10530616;28;20039;-82
2021/04/19 08:42:40;;;;;;;14.73;7.70;;;;;;;4.50;100.00;94429.81;10535576;28;20039;-82
2021/04/19 08:47:41;;;;;;;11.75;6.72;;;;;;;4.49;100.00;94414.91;10519540;28;20027;-82
2021/04/19 08:52:42;;;;;;;12.85;6.50;;;;;;;4.66;100.00;94413.03;10538910;28;20036;-82
2021/04/19 08:57:44;;;;;;;13.27;6.78;;;;;;;4.81;100.00;94420.41;10534233;28;20517;-81
2021/04/19 09:02:45;;;;;;;16.38;8.48;;;;;;;5.09;100.00;94418.66;10535504;28;20107;-81
2021/04/19 09:07:48;;;;;;;14.77;8.15;;;;;;;5.46;100.00;94412.75;10516614;28;20027;-81
2021/04/19 09:12:49;;;;;;;15.95;7.95;;;;;;;5.52;100.00;94416.28;10511342;28;20104;-82
2021/04/19 09:18:10;;;;;;;14.15;6.90;;;;;;;5.44;100.00;94410.34;10531755;28;20060;-81
2021/04/19 09:23:22;;;;;;;10.68;5.95;;;;;;;5.31;100.00;94416.81;10494253;28;20052;-81
2021/04/19 09:28:40;;;;;;;13.00;7.47;;;;;;;5.35;100.00;94421.69;10498624;28;20111;-80
2021/04/19 09:33:41;;;;;;;13.60;6.70;;;;;;;5.50;100.00;94411.19;10475946;28;20035;-81
2021/04/19 09:38:49;;;;;;;10.55;4.28;;;;;;;5.50;100.00;94395.19;10476051;28;20123;-80
2021/04/19 09:43:54;;;;;;;20.00;4.70;;;;;;;5.70;100.00;94397.28;10493492;28;20028;-81
2021/04/19 09:49:00;;;;;;;11.02;5.28;;;;;;;5.78;100.00;94388.03;10513165;28;20494;-80
2021/04/19 09:54:14;;;;;;;8.48;4.60;;;;;;;5.81;100.00;94388.31;10534575;28;20131;-81
2021/04/19 09:59:17;;;;;;;7.20;4.53;;;;;;;5.65;100.00;94389.22;10535086;28;20036;-81
2021/04/19 10:04:18;;;;;;;7.10;3.67;;;;;;;5.55;100.00;94373.13;10534990;28;20032;-81
2021/04/19 10:09:23;;;;;;;7.50;3.92;;;;;;;5.39;100.00;94370.28;10534737;28;20024;-81
2021/04/19 10:14:25;;;;;;;10.43;5.32;;;;;;;5.52;100.00;94362.97;10532713;28;20028;-81
2021/04/19 10:19:28;;;;;;;9.60;4.30;;;;;;;5.36;100.00;94365.47;10531125;28;20059;-80
2021/04/19 10:24:30;;;;;;;6.60;4.15;;;;;;;5.48;100.00;94362.66;10530224;28;20040;-80
2021/04/19 10:29:32;;;;;;;9.80;4.50;;;;;;;5.67;100.00;94359.66;10530438;28;20035;-80
2021/04/19 10:34:33;;;;;;;8.98;4.55;;;;;;;6.09;100.00;94345.66;10533560;28;20088;-81
2021/04/19 10:39:35;;;;;;;9.02;4.78;;;;;;;6.74;100.00;94340.22;10533030;28;20546;-81
2021/04/19 10:44:43;;;;;;;8.57;4.85;;;;;;;6.72;100.00;94329.00;10533589;28;20039;-81
2021/04/19 10:49:43;;;;;;;9.27;4.57;;;;;;;6.49;100.00;94323.00;10550353;28;20028;-81
2021/04/19 10:54:44;;;;;;;4.03;2.60;;;;;;;7.32;100.00;94314.28;10534441;28;20052;-81
2021/04/19 10:59:45;;;;;;;4.50;2.70;;;;;;;7.40;100.00;94312.19;10533303;28;20483;-81
2021/04/19 11:04:45;;;;;;;4.13;2.33;;;;;;;7.00;100.00;94304.59;10539675;28;20695;-81
2021/04/19 11:09:45;;;;;;;5.78;3.58;;;;;;;6.90;100.00;94301.84;10542442;28;20027;-81
2021/04/19 11:14:46;;;;;;;5.67;3.60;;;;;;;7.10;100.00;94290.47;10542358;28;20097;-81
2021/04/19 11:19:46;;;;;;;6.10;3.63;;;;;;;6.99;100.00;94296.81;10523375;28;20020;-81
2021/04/19 11:24:47;;;;;;;6.68;3.78;;;;;;;6.75;100.00;94301.78;10557598;28;20058;-81
2021/04/19 11:29:48;;;;;;;4.97;3.10;;;;;;;6.63;100.00;94294.78;10541806;28;20020;-81
2021/04/19 11:34:48;;;;;;;4.72;2.55;;;;;;;6.62;100.00;94279.81;10541320;28;20120;-81
2021/04/19 11:39:48;;;;;;;4.03;2.63;;;;;;;6.48;100.00;94284.03;10539921;28;20028;-81
2021/04/19 11:44:50;;;;;;;5.53;2.97;;;;;;;6.45;100.00;94293.34;10521978;28;20024;-81
2021/04/19 11:49:53;;;;;;;11.35;6.00;;;;;;;6.42;100.00;94290.38;10540243;28;20327;-81
2021/04/19 11:54:54;;;;;;;5.88;3.55;;;;;;;6.44;100.00;94285.59;10540163;28;20063;-82
2021/04/19 11:59:54;;;;;;;5.60;3.17;;;;;;;6.43;100.00;94279.47;10540957;28;20034;-82
2021/04/19 12:04:54;;;;;;;5.63;2.83;;;;;;;6.70;100.00;94286.53;10540307;28;20024;-81
2021/04/19 12:09:55;;;;;;;5.93;2.33;;;;;;;6.67;100.00;94290.53;10540303;28;20629;-81
2021/04/19 12:14:55;;;;;;;3.33;2.37;;;;;;;6.38;100.00;94273.25;10521397;28;20360;-81
2021/04/19 12:19:57;;;;;;;4.43;2.67;;;;;;;6.44;100.00;94274.91;10539245;28;20286;-81
2021/04/19 12:24:57;;;;;;;4.18;2.33;;;;;;;6.54;100.00;94274.97;10538571;28;20398;-81
2021/04/19 12:29:57;;;;;;;4.40;2.57;;;;;;;6.62;100.00;94274.47;10538337;28;20024;-81
2021/04/19 12:34:58;;;;;;;3.23;2.03;;;;;;;6.52;100.00;94268.28;10538489;28;20281;-81
2021/04/19 12:39:58;;;;;;;3.60;2.30;;;;;;;6.57;100.00;94257.63;10519692;28;20028;-81
2021/04/19 12:44:58;;;;;;;2.73;1.77;;;;;;;6.45;100.00;94271.19;10538390;28;20039;-81
2021/04/19 12:49:59;;;;;;;4.50;2.23;;;;;;;6.32;100.00;94257.25;10538494;28;20027;-82
2021/04/19 12:55:00;;;;;;;4.85;1.80;;;;;;;6.30;100.00;94256.69;10537217;28;20317;-82
2021/04/19 13:00:00;;;;;;;2.30;1.80;;;;;;;6.38;100.00;94244.72;10537552;28;20031;-81
2021/04/19 13:05:01;;;;;;;5.47;2.63;;;;;;;6.52;100.00;94236.25;10537078;28;20035;-81
2021/04/19 13:10:02;;;;;;;3.05;2.40;;;;;;;6.58;100.00;94238.69;10533917;28;20262;-81
2021/04/19 13:15:04;;;;;;;5.68;2.53;;;;;;;6.64;100.00;94234.97;10531086;28;20032;-81
2021/04/19 13:20:06;;;;;;;7.05;3.10;;;;;;;6.65;100.00;94225.88;10534556;28;20039;-82
2021/04/19 13:25:07;;;;;;;5.28;2.17;;;;;;;6.67;100.00;94237.13;10535898;28;20035;-81
2021/04/19 13:30:09;;;;;;;2.95;2.30;;;;;;;6.69;100.00;94225.41;10536474;28;20024;-81
2021/04/19 13:35:11;;;;;;;4.43;2.72;;;;;;;6.66;100.00;94232.84;10536073;28;20529;-81
2021/04/19 13:40:14;;;;;;;10.52;3.35;;;;;;;6.68;100.00;94229.91;10535770;28;20419;-81
2021/04/19 13:45:17;;;;;;;6.85;3.63;;;;;;;6.64;100.00;94226.97;10535381;28;20071;-82
2021/04/19 13:50:18;;;;;;;8.82;3.35;;;;;;;6.53;100.00;94227.19;10528766;28;20031;-81
2021/04/19 13:55:19;;;;;;;9.88;4.40;;;;;;;6.47;100.00;94224.50;10519244;28;20439;-82
2021/04/19 14:00:20;;;;;;;8.43;5.10;;;;;;;6.38;100.00;94222.56;10515562;28;20048;-81
2021/04/19 14:05:20;;;;;;;11.05;4.75;;;;;;;6.45;100.00;94223.94;10499658;28;20032;-81
2021/04/19 14:10:21;;;;;;;11.27;5.22;;;;;;;6.35;100.00;94229.25;10506981;28;20107;-82
2021/04/19 14:15:27;;;;;;;8.23;4.22;;;;;;;6.19;100.00;94224.88;10492734;28;20029;-81
2021/04/19 14:20:27;;;;;;;9.95;4.22;;;;;;;6.10;100.00;94228.03;10492651;28;20423;-81
2021/04/19 14:25:28;;;;;;;7.65;5.65;;;;;;;6.19;100.00;94222.19;10494820;28;20040;-81
2021/04/19 14:30:28;;;;;;;10.60;5.88;;;;;;;6.22;100.00;94227.03;10502428;28;20106;-81
2021/04/19 14:35:29;;;;;;;8.95;3.55;;;;;;;6.21;100.00;94220.06;10522960;28;20024;-81
2021/04/19 14:40:29;;;;;;;8.02;3.53;;;;;;;6.18;100.00;94217.91;10490715;28;20033;-80
2021/04/19 14:45:30;;;;;;;6.37;3.43;;;;;;;6.24;100.00;94215.03;10490449;28;20024;-79
2021/04/19 14:50:31;;;;;;;2.90;2.03;;;;;;;6.14;100.00;94210.44;10490492;28;20321;-80
2021/04/19 14:55:31;;;;;;;5.72;3.00;;;;;;;5.72;100.00;94213.06;10491025;28;20136;-79
2021/04/19 15:00:32;;;;;;;4.85;2.53;;;;;;;5.80;100.00;94213.41;10488471;28;20036;-79
2021/04/19 15:05:34;;;;;;;14.20;3.30;;;;;;;5.97;100.00;94210.59;10489190;28;20032;-80
2021/04/19 15:10:36;;;;;;;6.10;3.10;;;;;;;5.97;100.00;94212.41;10488016;28;20027;-80
2021/04/19 15:15:36;;;;;;;6.90;4.18;;;;;;;6.04;100.00;94217.56;10488665;28;20087;-80
2021/04/19 15:20:37;;;;;;;9.43;4.03;;;;;;;6.06;100.00;94210.91;10489279;28;20693;-80
2021/04/19 15:25:39;;;;;;;4.05;3.15;;;;;;;5.79;100.00;94205.63;10488974;28;20025;-80
2021/04/19 15:30:40;;;;;;;8.50;3.20;;;;;;;5.44;100.00;94210.44;10495214;28;20028;-80
2021/04/19 15:35:43;;;;;;;6.60;3.67;;;;;;;5.29;100.00;94205.78;10490214;28;20039;-77
2021/04/19 15:40:44;;;;;;;8.30;4.78;;;;;;;5.35;100.00;94195.97;10504536;28;20059;-78
2021/04/19 15:45:45;;;;;;;7.38;4.35;;;;;;;5.36;100.00;94188.78;10525652;28;20507;-78
2021/04/19 15:50:46;;;;;;;12.90;6.82;;;;;;;5.48;100.00;94198.22;10524557;28;20103;-78
2021/04/19 15:55:48;;;;;;;10.48;5.95;;;;;;;5.34;100.00;94197.03;10510312;28;20047;-77
2021/04/19 16:00:50;;;;;;;9.60;5.10;;;;;;;5.52;100.00;94192.38;10523858;28;20420;-77
2021/04/19 16:05:51;;;;;;;11.63;6.43;;;;;;;5.54;100.00;94196.41;10508179;28;20078;-77
2021/04/19 16:10:51;;;;;;;7.75;5.05;;;;;;;5.51;100.00;94196.09;10509493;28;20024;-78
2021/04/19 16:15:52;;;;;;;7.15;4.50;;;;;;;5.58;100.00;94204.69;10492833;28;20031;-78
2021/04/19 16:20:52;;;;;;;5.73;2.50;;;;;;;5.52;100.00;94205.72;10488532;28;20028;-78
2021/04/19 16:25:52;;;;;;;4.43;2.27;;;;;;;5.40;100.00;94212.00;10500876;28;20028;-78
2021/04/19 16:30:53;;;;;;;4.97;3.50;;;;;;;5.41;100.00;94207.47;10503149;28;20027;-78
2021/04/19 16:35:53;;;;;;;6.18;3.72;;;;;;;4.97;100.00;94209.22;10529847;28;20039;-77
2021/04/19 16:40:53;;;;;;;4.77;3.10;;;;;;;4.83;100.00;94213.31;10526996;28;20077;-77
2021/04/19 16:45:54;;;;;;;5.07;2.63;;;;;;;4.88;100.00;94202.72;10522202;28;20032;-78
2021/04/19 16:50:54;;;;;;;10.90;2.40;;;;;;;5.00;100.00;94207.13;10525222;28;20066;-78
2021/04/19 16:55:55;;;;;;;4.90;2.50;;;;;;;5.02;100.00;94208.44;10524703;28;20561;-78
2021/04/19 17:00:55;;;;;;;8.70;4.10;;;;;;;5.08;100.00;94214.63;10520723;28;20062;-78
2021/04/19 17:05:56;;;;;;;9.50;4.43;;;;;;;5.14;100.00;94210.97;10526535;28;20392;-80
2021/04/19 17:10:56;;;;;;;7.90;3.70;;;;;;;5.04;100.00;94213.53;10526802;28;20495;-81
2021/04/19 17:15:57;;;;;;;8.55;5.10;;;;;;;5.02;100.00;94205.78;10525358;28;20350;-79
2021/04/19 17:20:57;;;;;;;4.13;3.05;;;;;;;5.06;100.00;94211.41;10523613;28;20059;-79
2021/04/19 17:25:58;;;;;;;10.60;3.20;;;;;;;5.07;100.00;94216.50;10523107;28;20024;-79
2021/04/19 17:30:58;;;;;;;6.38;2.65;;;;;;;4.96;100.00;94220.13;10524702;28;20016;-80
2021/04/19 17:35:58;;;;;;;4.13;2.90;;;;;;;5.00;100.00;94215.09;10526030;28;20131;-81
2021/04/19 17:40:59;;;;;;;7.32;3.67;;;;;;;5.00;100.00;94223.88;10527931;28;20309;-79
2021/04/19 17:45:59;;;;;;;6.95;3.20;;;;;;;5.04;100.00;94234.84;10500463;28;20033;-79
2021/04/19 17:51:00;;;;;;;4.05;3.08;;;;;;;5.06;100.00;94235.38;10509497;28;20036;-80
2021/04/19 17:56:00;;;;;;;10.85;4.25;;;;;;;5.18;100.00;94229.91;10506327;28;20749;-80
2021/04/19 18:01:04;;;;;;;5.37;3.13;;;;;;;5.12;100.00;94245.84;10503715;28;20028;-81
2021/04/19 18:06:05;;;;;;;8.32;4.30;;;;;;;5.16;100.00;94243.47;10492191;28;20542;-80
2021/04/19 18:11:06;;;;;;;7.03;4.18;;;;;;;5.02;100.00;94248.38;10509665;28;20031;-80
2021/04/19 18:16:06;;;;;;;10.30;4.78;;;;;;;4.95;100.00;94245.94;10474439;28;20086;-80
2021/04/19 18:21:07;;;;;;;5.88;3.40;;;;;;;4.92;100.00;94256.28;10511547;28;20025;-80
2021/04/19 18:26:07;;;;;;;6.05;3.20;;;;;;;5.00;100.00;94245.19;10504158;28;20025;-80
2021/04/19 18:31:08;;;;;;;7.65;4.20;;;;;;;5.02;100.00;94245.72;10499737;28;20024;-80
2021/04/19 18:36:09;;;;;;;7.63;3.58;;;;;;;4.99;100.00;94242.78;10524188;28;20095;-80
2021/04/19 18:41:10;;;;;;;11.32;3.70;;;;;;;5.03;100.00;94243.88;10509320;28;20071;-79
2021/04/19 18:46:10;;;;;;;8.05;3.28;;;;;;;5.01;100.00;94238.00;10508859;28;20063;-79
2021/04/19 18:51:11;;;;;;;10.02;3.05;;;;;;;5.02;100.00;94239.59;10489315;28;20539;-80
2021/04/19 18:56:11;;;;;;;7.65;3.47;;;;;;;4.90;100.00;94235.22;10514656;28;20116;-80
2021/04/19 19:01:12;;;;;;;8.75;4.47;;;;;;;4.94;100.00;94232.88;10514407;28;20180;-79
2021/04/19 19:06:12;;;;;;;5.47;3.27;;;;;;;4.53;100.00;94238.50;10526923;28;20589;-79
2021/04/19 19:11:13;;;;;;;4.72;2.88;;;;;;;4.37;100.00;94232.22;10527239;28;20326;-79
2021/04/19 19:16:16;;;;;;;4.75;3.17;;;;;;;4.43;100.00;94233.09;10528367;28;20035;-79
2021/04/19 19:21:22;;;;;;;12.65;2.78;;;;;;;4.41;100.00;94229.84;10490101;28;20456;-80
2021/04/19 19:26:22;;;;;;;3.72;1.92;;;;;;;4.54;100.00;94232.16;10530094;28;20411;-80
2021/04/19 19:31:23;;;;;;;6.95;2.67;;;;;;;4.73;100.00;94226.50;10527968;28;20020;-80
2021/04/19 19:36:23;;;;;;;3.55;2.00;;;;;;;4.76;100.00;94236.69;10517803;28;20119;-80
2021/04/19 19:41:24;;;;;;;3.63;2.20;;;;;;;4.79;100.00;94234.31;10537025;28;20024;-81
2021/04/19 19:46:25;;;;;;;4.63;1.67;;;;;;;4.65;100.00;94232.25;10539052;28;20028;-82
2021/04/19 19:51:25;;;;;;;2.78;1.77;;;;;;;4.75;100.00;94232.41;10533144;28;20285;-79
2021/04/19 19:56:26;;;;;;;3.23;1.53;;;;;;;4.75;100.00;94229.75;10529901;28;20030;-79
2021/04/19 20:01:26;;;;;;;3.67;1.63;;;;;;;4.54;100.00;94232.16;10533684;28;20036;-80
2021/04/19 20:06:27;;;;;;;3.85;1.48;;;;;;;4.55;100.00;94230.28;10515647;28;20856;-80
2021/04/19 20:11:27;;;;;;;5.37;2.60;;;;;;;4.40;100.00;94233.56;10473690;28;20051;-82
2021/04/19 20:16:28;;;;;;;8.13;3.50;;;;;;;4.45;100.00;94222.97;10451467;28;20281;-85
2021/04/19 20:21:28;;;;;;;9.23;4.70;;;;;;;4.55;100.00;94227.63;10498691;28;20028;-85
2021/04/19 20:26:28;;;;;;;9.37;5.37;;;;;;;4.55;100.00;94235.59;10513798;28;20610;-83
2021/04/19 20:31:29;;;;;;;9.40;5.53;;;;;;;4.53;100.00;94219.88;10512005;28;20032;-84
2021/04/19 20:36:29;;;;;;;16.40;4.55;;;;;;;4.76;100.00;94218.84;10513451;28;20040;-85
2021/04/19 20:41:31;;;;;;;11.07;5.40;;;;;;;4.94;100.00;94204.38;10514506;28;20040;-85
2021/04/19 20:46:31;;;;;;;12.93;6.22;;;;;;;4.82;100.00;94218.91;10497977;28;20035;-85
2021/04/19 20:51:31;;;;;;;10.20;6.97;;;;;;;4.79;100.00;94217.53;10497980;28;20506;-85
2021/04/19 20:56:32;;;;;;;11.18;5.88;;;;;;;4.76;100.00;94218.03;10497627;28;20056;-85
2021/04/19 21:01:34;;;;;;;7.03;4.93;;;;;;;4.85;100.00;94216.53;10498050;28;20032;-84
2021/04/19 21:06:35;;;;;;;11.93;5.53;;;;;;;4.91;100.00;94212.88;10497599;28;20031;-83
2021/04/19 21:11:35;;;;;;;6.82;4.60;;;;;;;4.92;100.00;94209.16;10479110;28;20032;-84
2021/04/19 21:16:35;;;;;;;8.07;5.40;;;;;;;4.81;100.00;94203.97;10497198;28;20495;-84
2021/04/19 21:21:36;;;;;;;11.00;5.53;;;;;;;4.87;100.00;94203.78;10497042;28;20476;-85
2021/04/19 21:26:36;;;;;;;10.02;5.15;;;;;;;4.83;100.00;94199.19;10512440;28;20025;-85
2021/04/19 21:31:37;;;;;;;11.20;5.70;;;;;;;4.55;100.00;94196.50;10503509;28;20051;-85
2021/04/19 21:36:37;;;;;;;9.93;5.80;;;;;;;4.71;100.00;94200.13;10518762;28;20142;-85
2021/04/19 21:41:38;;;;;;;10.27;5.97;;;;;;;4.81;100.00;94203.97;10536267;28;20039;-85
2021/04/19 21:46:39;;;;;;;17.10;7.32;;;;;;;4.76;100.00;94205.53;10536721;28;20031;-85
2021/04/19 21:51:40;;;;;;;9.25;4.25;;;;;;;4.85;100.00;94197.91;10531516;28;20066;-83
2021/04/19 21:56:40;;;;;;;8.45;4.85;;;;;;;4.53;100.00;94197.81;10506039;28;20241;-84
2021/04/19 22:01:41;;;;;;;10.18;5.03;;;;;;;4.53;100.00;94201.25;10521821;28;20028;-83
2021/04/19 22:06:41;;;;;;;7.40;4.07;;;;;;;4.32;100.00;94200.22;10537074;28;20084;-84
2021/04/19 22:11:43;;;;;;;12.70;5.75;;;;;;;4.31;100.00;94203.91;10536876;28;20783;-84
2021/04/19 22:16:43;;;;;;;12.57;7.90;;;;;;;4.14;100.00;94196.00;10536768;28;20039;-83
2021/04/19 22:21:44;;;;;;;15.33;8.70;;;;;;;4.05;100.00;94203.59;10552425;28;20038;-83
2021/04/19 22:26:45;;;;;;;16.70;9.10;;;;;;;4.03;100.00;94200.38;10536301;28;20339;-83
2021/04/19 22:31:46;;;;;;;15.93;9.40;;;;;;;4.04;100.00;94199.31;10536618;28;20363;-83
2021/04/19 22:36:47;;;;;;;15.32;9.23;;;;;;;4.03;100.00;94188.94;10536216;28;20121;-83
2021/04/19 22:41:47;;;;;;;17.20;9.38;;;;;;;3.99;100.00;94188.63;10518134;28;20376;-83
2021/04/19 22:46:47;;;;;;;17.50;10.30;;;;;;;4.05;100.00;94184.19;10535711;28;20023;-83
2021/04/19 22:51:48;;;;;;;17.97;9.60;;;;;;;4.11;100.00;94191.16;10535647;28;20423;-84
2021/04/19 22:56:49;;;;;;;16.80;9.38;;;;;;;4.42;100.00;94191.56;10535861;28;20310;-82
2021/04/19 23:01:49;;;;;;;15.30;8.43;;;;;;;4.56;100.00;94187.47;10543199;28;20111;-83
2021/04/19 23:06:50;;;;;;;18.50;9.77;;;;;;;4.69;100.00;94185.47;10537684;28;20131;-84